Time;durP1;ratioP1;P1;durP2;ratioP2;P2;SDS_P1;SDS_P2;PMS_P1;PMS_P2;Temp;Humidity;BMP_temperature;BMP_pressure;BME280_temperature;BME280_humidity;BME280_pressure;Samples;Min_cycle;Max_cycle;Signal;HPM_P1;HPM_P2
2024/04/13 00:01:42;;;;;;;6.10;5.17;;;22.90;50.10;;;;;;5277094;27;20471;-80
2024/04/13 00:04:12;;;;;;;6.90;5.20;;;23.00;50.50;;;;;;5278305;27;20475;-81
2024/04/13 00:06:40;;;;;;;5.43;4.63;;;23.00;50.50;;;;;;5281044;27;20549;-81
2024/04/13 00:09:14;;;;;;;6.67;4.80;;;22.90;50.30;;;;;;5279447;27;21074;-81
2024/04/13 00:11:41;;;;;;;5.80;4.60;;;22.90;50.20;;;;;;5282065;27;20520;-81
2024/04/13 00:14:11;;;;;;;8.57;5.13;;;22.80;50.20;;;;;;5276837;27;20495;-81
2024/04/13 00:16:41;;;;;;;6.00;5.10;;;22.80;50.50;;;;;;5283090;27;20522;-81
2024/04/13 00:19:11;;;;;;;5.37;4.47;;;22.80;50.50;;;;;;5292864;27;20534;-83
2024/04/13 00:21:39;;;;;;;6.70;4.63;;;22.80;50.50;;;;;;5293116;27;20559;-82
2024/04/13 00:24:09;;;;;;;7.30;5.40;;;22.80;50.40;;;;;;5286411;27;20523;-81
2024/04/13 00:26:37;;;;;;;6.10;4.57;;;22.80;50.60;;;;;;5282505;27;20617;-81
2024/04/13 00:29:08;;;;;;;6.50;4.40;;;22.80;50.60;;;;;;5281092;27;20521;-81
2024/04/13 00:31:36;;;;;;;5.97;4.90;;;22.80;50.50;;;;;;5282071;27;20482;-81
2024/04/13 00:34:08;;;;;;;6.60;4.93;;;22.80;50.50;;;;;;5262957;27;20479;-81
2024/04/13 00:36:36;;;;;;;4.47;4.13;;;22.70;50.40;;;;;;5276185;27;21041;-81
2024/04/13 00:39:06;;;;;;;6.53;4.80;;;22.70;50.60;;;;;;5278782;27;20562;-81
2024/04/13 00:41:33;;;;;;;7.20;4.50;;;22.80;50.80;;;;;;5286724;26;20584;-81
2024/04/13 00:44:03;;;;;;;6.27;4.20;;;22.80;50.50;;;;;;5309960;27;20601;-81
2024/04/13 00:46:32;;;;;;;6.20;4.20;;;22.80;50.50;;;;;;5274321;27;20492;-81
2024/04/13 00:49:10;;;;;;;7.00;4.27;;;22.70;50.50;;;;;;5269865;27;20573;-81
2024/04/13 00:51:41;;;;;;;5.50;4.43;;;22.70;50.50;;;;;;5270085;27;20522;-81
2024/04/13 00:54:13;;;;;;;4.07;3.70;;;22.70;50.70;;;;;;5284026;27;20470;-79
2024/04/13 00:56:40;;;;;;;5.33;4.57;;;22.70;50.40;;;;;;5280791;27;20542;-78
2024/04/13 00:59:10;;;;;;;5.43;4.20;;;22.70;50.80;;;;;;5267702;27;20478;-81
2024/04/13 01:01:38;;;;;;;4.93;3.80;;;22.70;50.70;;;;;;5281785;27;20542;-81
2024/04/13 01:04:08;;;;;;;4.40;4.00;;;22.70;50.70;;;;;;5281145;27;20482;-81
2024/04/13 01:06:38;;;;;;;5.87;4.53;;;22.70;50.90;;;;;;5281296;27;20523;-80
2024/04/13 01:09:14;;;;;;;4.20;3.80;;;22.70;50.60;;;;;;5281061;27;20584;-81
2024/04/13 01:11:42;;;;;;;4.60;4.20;;;22.70;50.70;;;;;;5281333;27;20469;-81
2024/04/13 01:14:13;;;;;;;4.33;3.70;;;22.60;50.80;;;;;;5281887;27;20553;-81
2024/04/13 01:16:40;;;;;;;5.53;3.73;;;22.60;50.70;;;;;;5273815;27;20527;-81
2024/04/13 01:19:11;;;;;;;5.07;4.00;;;22.60;50.60;;;;;;5307269;27;20487;-82
2024/04/13 01:21:39;;;;;;;5.73;4.07;;;22.60;50.70;;;;;;5251867;27;20528;-80
2024/04/13 01:24:12;;;;;;;5.27;4.17;;;22.60;50.80;;;;;;5283723;27;20553;-81
2024/04/13 01:26:41;;;;;;;5.43;3.47;;;22.60;50.70;;;;;;5280738;27;20454;-82
2024/04/13 01:29:11;;;;;;;4.00;3.70;;;22.60;50.90;;;;;;5281338;27;20570;-80
2024/04/13 01:31:38;;;;;;;4.47;3.87;;;22.60;50.90;;;;;;5281331;27;20470;-82
2024/04/13 01:34:08;;;;;;;3.80;3.50;;;22.60;50.80;;;;;;5279602;27;20458;-80
2024/04/13 01:36:36;;;;;;;3.47;3.17;;;22.60;50.90;;;;;;5280893;27;20517;-80
2024/04/13 01:39:07;;;;;;;5.10;4.30;;;22.50;50.80;;;;;;5280422;27;20524;-80
2024/04/13 01:41:42;;;;;;;3.83;3.53;;;22.60;51.00;;;;;;5280173;27;20589;-81
2024/04/13 01:44:12;;;;;;;5.00;3.10;;;22.50;50.70;;;;;;5280777;27;20490;-80
2024/04/13 01:46:39;;;;;;;4.67;3.80;;;22.50;51.00;;;;;;5265357;27;20486;-80
2024/04/13 01:49:09;;;;;;;4.40;3.70;;;22.50;50.90;;;;;;5279074;27;20479;-80
2024/04/13 01:51:37;;;;;;;3.70;3.40;;;22.50;50.80;;;;;;5280878;27;20479;-80
2024/04/13 01:54:07;;;;;;;4.60;4.20;;;22.50;51.10;;;;;;5280269;27;20486;-80
2024/04/13 01:56:34;;;;;;;5.40;4.87;;;22.50;51.10;;;;;;5268269;27;20541;-81
2024/04/13 01:59:08;;;;;;;6.97;5.23;;;22.50;51.20;;;;;;5293781;26;20595;-81
2024/04/13 02:01:35;;;;;;;5.20;4.70;;;22.50;51.00;;;;;;5268855;27;20497;-80
2024/04/13 02:04:05;;;;;;;4.40;4.00;;;22.50;51.20;;;;;;5279598;27;20539;-82
2024/04/13 02:06:32;;;;;;;5.80;4.80;;;22.50;51.00;;;;;;5267152;27;20470;-82
2024/04/13 02:09:02;;;;;;;6.20;5.60;;;22.40;51.10;;;;;;5280266;27;20467;-80
2024/04/13 02:11:29;;;;;;;7.00;5.33;;;22.40;51.00;;;;;;5266725;27;20478;-80
2024/04/13 02:14:00;;;;;;;9.00;6.50;;;22.40;51.30;;;;;;5253565;27;20529;-82
2024/04/13 02:16:30;;;;;;;5.97;5.13;;;22.40;51.20;;;;;;5279873;27;20498;-80
2024/04/13 02:19:00;;;;;;;8.13;6.40;;;22.40;51.10;;;;;;5280788;27;20471;-82
2024/04/13 02:21:28;;;;;;;7.40;6.37;;;22.40;51.10;;;;;;5258617;27;20480;-81
2024/04/13 02:23:58;;;;;;;7.90;6.30;;;22.40;51.30;;;;;;5295131;27;20474;-80
2024/04/13 02:26:25;;;;;;;9.83;7.27;;;22.40;51.20;;;;;;5311794;27;20493;-81
2024/04/13 02:28:55;;;;;;;11.93;7.50;;;22.40;51.20;;;;;;5293518;27;20519;-81
2024/04/13 02:31:22;;;;;;;14.37;7.07;;;22.40;51.20;;;;;;5287449;26;20462;-80
2024/04/13 02:33:54;;;;;;;9.43;6.93;;;22.30;51.30;;;;;;5295889;27;20478;-81
2024/04/13 02:36:22;;;;;;;10.47;8.20;;;22.30;51.10;;;;;;5297385;27;20453;-82
2024/04/13 02:38:52;;;;;;;10.80;7.50;;;22.30;51.30;;;;;;5277208;27;20480;-81
2024/04/13 02:41:19;;;;;;;8.77;7.30;;;22.30;51.20;;;;;;5265535;27;20494;-80
2024/04/13 02:43:49;;;;;;;9.40;7.50;;;22.30;51.40;;;;;;5280082;27;20486;-80
2024/04/13 02:46:17;;;;;;;11.47;7.73;;;22.30;51.30;;;;;;5280767;27;20487;-83
2024/04/13 02:48:47;;;;;;;9.57;7.67;;;22.30;51.30;;;;;;5281459;27;20483;-78
2024/04/13 02:51:18;;;;;;;10.90;8.17;;;22.30;51.50;;;;;;5281445;27;20550;-81
2024/04/13 02:53:48;;;;;;;9.20;7.23;;;22.30;51.40;;;;;;5270533;27;20483;-81
2024/04/13 02:56:15;;;;;;;10.00;7.63;;;22.30;51.20;;;;;;5280642;27;20541;-81
2024/04/13 02:58:45;;;;;;;10.43;7.43;;;22.30;51.40;;;;;;5258116;27;20480;-81
2024/04/13 03:01:12;;;;;;;11.40;8.47;;;22.30;51.40;;;;;;5280862;27;20478;-80
2024/04/13 03:03:42;;;;;;;9.83;8.20;;;22.30;51.40;;;;;;5280635;27;20486;-79
2024/04/13 03:06:11;;;;;;;11.13;7.60;;;22.30;51.40;;;;;;5280011;27;20526;-81
2024/04/13 03:08:44;;;;;;;9.40;7.63;;;22.30;51.30;;;;;;5280767;27;20463;-81
2024/04/13 03:11:11;;;;;;;8.97;7.67;;;22.30;51.50;;;;;;5280608;27;20459;-81
2024/04/13 03:13:42;;;;;;;9.20;7.37;;;22.30;51.50;;;;;;5280269;27;20450;-81
2024/04/13 03:16:10;;;;;;;11.73;7.90;;;22.20;51.40;;;;;;5280372;27;20478;-81
2024/04/13 03:18:41;;;;;;;11.97;7.40;;;22.20;51.60;;;;;;5278743;27;20458;-81
2024/04/13 03:21:09;;;;;;;9.73;7.30;;;22.20;51.50;;;;;;5280894;27;20459;-80
2024/04/13 03:23:42;;;;;;;9.23;7.07;;;22.20;51.50;;;;;;5279939;27;20466;-81
2024/04/13 03:26:12;;;;;;;11.03;7.20;;;22.20;51.50;;;;;;5279695;27;20490;-80
2024/04/13 03:28:42;;;;;;;10.90;7.37;;;22.20;51.60;;;;;;5280130;27;20470;-81
2024/04/13 03:31:10;;;;;;;11.37;8.60;;;22.20;51.50;;;;;;5278331;27;20515;-79
2024/04/13 03:33:40;;;;;;;8.70;7.17;;;22.20;51.40;;;;;;5278185;27;20462;-81
2024/04/13 03:36:07;;;;;;;9.33;6.97;;;22.20;51.60;;;;;;5279699;27;21015;-82
2024/04/13 03:38:38;;;;;;;9.53;7.07;;;22.10;51.40;;;;;;5279274;27;20435;-78
2024/04/13 03:41:05;;;;;;;10.13;7.27;;;22.10;51.60;;;;;;5276427;27;20482;-80
2024/04/13 03:43:39;;;;;;;9.80;7.30;;;22.10;51.80;;;;;;5272881;27;20525;-81
2024/04/13 03:46:06;;;;;;;7.70;6.90;;;22.10;51.80;;;;;;5279063;27;20498;-82
2024/04/13 03:48:38;;;;;;;9.07;7.17;;;22.10;51.70;;;;;;5270220;27;20474;-80
2024/04/13 03:51:06;;;;;;;10.10;6.80;;;22.10;51.70;;;;;;5278746;27;20482;-80
2024/04/13 03:53:36;;;;;;;9.77;6.43;;;22.10;51.70;;;;;;5278892;27;20584;-80
2024/04/13 03:56:04;;;;;;;7.33;6.53;;;22.10;51.80;;;;;;5278822;27;20506;-81
2024/04/13 03:58:34;;;;;;;8.30;6.90;;;22.10;51.60;;;;;;5278777;27;20482;-80
2024/04/13 04:01:04;;;;;;;10.00;6.73;;;22.10;51.70;;;;;;5279509;27;20483;-80
2024/04/13 04:03:35;;;;;;;9.17;6.73;;;22.10;51.80;;;;;;5284159;27;20468;-82
2024/04/13 04:06:04;;;;;;;11.53;6.80;;;22.10;51.70;;;;;;5285852;26;20479;-81
2024/04/13 04:08:35;;;;;;;7.73;6.90;;;22.10;51.80;;;;;;5278333;27;20486;-80
2024/04/13 04:11:02;;;;;;;6.67;5.97;;;22.00;51.70;;;;;;5278810;27;20516;-80
2024/04/13 04:13:32;;;;;;;10.07;7.17;;;22.00;51.60;;;;;;5278509;27;20923;-79
2024/04/13 04:15:59;;;;;;;6.73;6.00;;;22.00;51.90;;;;;;5278400;27;20486;-80
2024/04/13 04:18:32;;;;;;;7.83;6.30;;;22.00;51.90;;;;;;5278371;27;20588;-80
2024/04/13 04:21:00;;;;;;;7.23;6.43;;;22.00;52.00;;;;;;5278786;27;20475;-79
2024/04/13 04:23:30;;;;;;;7.97;5.70;;;22.00;52.00;;;;;;5278293;27;20601;-80
2024/04/13 04:25:57;;;;;;;7.63;6.67;;;22.00;51.90;;;;;;5276665;27;20524;-80
2024/04/13 04:28:27;;;;;;;7.17;5.87;;;21.90;51.80;;;;;;5278557;27;20553;-79
2024/04/13 04:30:54;;;;;;;7.03;5.73;;;22.00;52.00;;;;;;5278512;27;20482;-81
2024/04/13 04:33:24;;;;;;;9.03;5.63;;;21.90;51.70;;;;;;5277800;27;20486;-81
2024/04/13 04:35:54;;;;;;;8.63;6.13;;;21.90;51.70;;;;;;5278401;27;20482;-81
2024/04/13 04:38:24;;;;;;;7.47;6.30;;;21.90;52.00;;;;;;5278203;27;20533;-80
2024/04/13 04:40:51;;;;;;;8.30;6.80;;;21.90;52.00;;;;;;5290928;27;20495;-82
2024/04/13 04:43:21;;;;;;;6.33;5.67;;;22.00;51.90;;;;;;5277424;27;20474;-81
2024/04/13 04:45:48;;;;;;;6.67;5.77;;;21.90;51.80;;;;;;5278556;27;20470;-81
2024/04/13 04:48:18;;;;;;;6.47;5.73;;;22.00;52.00;;;;;;5277817;27;20512;-84
2024/04/13 04:50:57;;;;;;;6.33;5.40;;;22.00;51.90;;;;;;5268459;27;20518;-82
2024/04/13 04:53:28;;;;;;;5.63;5.03;;;21.90;51.60;;;;;;5277158;27;20490;-83
2024/04/13 04:55:56;;;;;;;5.93;5.33;;;21.90;52.00;;;;;;5255880;27;20530;-81
2024/04/13 04:58:26;;;;;;;8.17;5.50;;;21.90;52.00;;;;;;5278016;27;20478;-80
2024/04/13 05:00:54;;;;;;;7.50;5.00;;;21.90;51.90;;;;;;5281553;27;20547;-81
2024/04/13 05:03:24;;;;;;;5.53;4.93;;;21.90;51.90;;;;;;5281291;27;20540;-81
2024/04/13 05:05:52;;;;;;;7.40;5.70;;;21.90;51.90;;;;;;5281046;27;20466;-80
2024/04/13 05:08:25;;;;;;;6.50;5.30;;;21.90;52.00;;;;;;5292479;27;20560;-81
2024/04/13 05:10:52;;;;;;;5.40;4.70;;;21.90;51.90;;;;;;5281968;27;20490;-79
2024/04/13 05:13:22;;;;;;;7.20;4.63;;;21.90;51.70;;;;;;5280257;27;20513;-81
2024/04/13 05:15:49;;;;;;;5.90;5.30;;;22.00;51.80;;;;;;5281768;27;20458;-80
2024/04/13 05:18:19;;;;;;;5.40;4.87;;;22.00;52.00;;;;;;5281830;27;20510;-81
2024/04/13 05:20:46;;;;;;;5.40;4.90;;;22.00;51.80;;;;;;5281684;27;20469;-80
2024/04/13 05:23:16;;;;;;;7.13;5.17;;;22.00;51.70;;;;;;5279394;27;20497;-80
2024/04/13 05:25:46;;;;;;;5.53;4.90;;;22.00;52.00;;;;;;5268794;27;20525;-81
2024/04/13 05:28:16;;;;;;;5.03;4.53;;;22.00;51.90;;;;;;5281359;27;20462;-79
2024/04/13 05:30:55;;;;;;;4.37;4.07;;;22.00;51.80;;;;;;5279927;27;20455;-80
2024/04/13 05:33:26;;;;;;;5.60;4.70;;;22.00;51.80;;;;;;5281335;27;20474;-80
2024/04/13 05:35:55;;;;;;;4.70;4.27;;;22.00;51.90;;;;;;5280791;27;20478;-80
2024/04/13 05:38:27;;;;;;;5.03;4.53;;;22.10;51.80;;;;;;5280157;27;20490;-80
2024/04/13 05:40:57;;;;;;;4.83;4.43;;;22.10;51.60;;;;;;5271063;27;20572;-80
2024/04/13 05:43:27;;;;;;;5.13;4.63;;;22.10;51.70;;;;;;5280814;27;20518;-80
2024/04/13 05:45:54;;;;;;;6.10;4.80;;;22.10;52.30;;;;;;5281772;27;20519;-81
2024/04/13 05:48:24;;;;;;;4.87;4.47;;;22.20;51.60;;;;;;5281668;27;20483;-80
2024/04/13 05:50:52;;;;;;;4.70;4.30;;;22.20;51.70;;;;;;5281696;27;20534;-81
2024/04/13 05:53:27;;;;;;;4.43;3.97;;;22.20;51.70;;;;;;5281225;27;20446;-81
2024/04/13 05:56:06;;;;;;;4.63;3.87;;;22.20;51.70;;;;;;5281129;27;20505;-81
2024/04/13 05:58:35;;;;;;;5.33;4.20;;;22.30;51.60;;;;;;5281635;27;20498;-82
2024/04/13 06:01:05;;;;;;;5.23;4.13;;;22.30;51.60;;;;;;5281154;27;20470;-81
2024/04/13 06:03:33;;;;;;;4.57;4.17;;;22.30;51.60;;;;;;5265790;27;20524;-80
2024/04/13 06:06:03;;;;;;;4.63;4.23;;;22.30;51.50;;;;;;5269360;27;20547;-81
2024/04/13 06:08:30;;;;;;;4.40;4.00;;;22.30;51.60;;;;;;5280866;27;20873;-81
2024/04/13 06:11:03;;;;;;;4.17;3.77;;;22.40;51.50;;;;;;5280380;27;20517;-80
2024/04/13 06:13:30;;;;;;;4.03;3.73;;;22.40;51.40;;;;;;5280033;27;20542;-81
2024/04/13 06:16:04;;;;;;;4.30;3.90;;;22.40;51.50;;;;;;5289990;27;20580;-81
2024/04/13 06:18:32;;;;;;;4.37;4.00;;;22.50;51.40;;;;;;5279964;27;20519;-81
2024/04/13 06:21:03;;;;;;;4.10;3.70;;;22.50;51.50;;;;;;5278874;27;20612;-81
2024/04/13 06:23:30;;;;;;;4.40;4.00;;;22.60;51.40;;;;;;5279981;27;20587;-81
2024/04/13 06:26:03;;;;;;;3.60;3.30;;;22.60;51.40;;;;;;5307115;27;20594;-80
2024/04/13 06:28:30;;;;;;;4.23;3.83;;;22.60;51.40;;;;;;5280850;27;20490;-82
2024/04/13 06:31:00;;;;;;;4.17;3.77;;;22.60;51.30;;;;;;5280413;27;20467;-81
2024/04/13 06:33:27;;;;;;;3.77;3.47;;;22.70;51.20;;;;;;5274538;27;20466;-81
2024/04/13 06:35:57;;;;;;;4.10;3.70;;;22.70;51.30;;;;;;5259018;27;20518;-82
2024/04/13 06:38:26;;;;;;;3.87;3.57;;;22.70;51.20;;;;;;5262048;27;20514;-82
2024/04/13 06:40:56;;;;;;;4.07;3.73;;;22.80;51.20;;;;;;5281755;27;20531;-81
2024/04/13 06:43:26;;;;;;;4.93;4.00;;;22.90;51.20;;;;;;5281795;27;20948;-81
2024/04/13 06:45:56;;;;;;;3.77;3.47;;;22.90;51.20;;;;;;5281172;27;20563;-81
2024/04/13 06:48:23;;;;;;;4.40;3.90;;;23.00;50.90;;;;;;5281288;27;20513;-81
2024/04/13 06:50:53;;;;;;;3.80;3.50;;;23.00;51.30;;;;;;5281026;27;21106;-82
2024/04/13 06:53:20;;;;;;;3.97;3.57;;;23.00;51.10;;;;;;5281261;27;20510;-81
2024/04/13 06:55:50;;;;;;;3.50;3.30;;;23.10;51.00;;;;;;5279667;27;20582;-82
2024/04/13 06:58:23;;;;;;;3.27;3.07;;;23.10;51.30;;;;;;5279407;27;20474;-82
2024/04/13 07:01:01;;;;;;;4.00;3.70;;;23.10;51.00;;;;;;5281148;27;20490;-81
2024/04/13 07:03:29;;;;;;;3.40;3.10;;;23.20;51.20;;;;;;5280784;27;20470;-82
2024/04/13 07:06:00;;;;;;;3.37;3.17;;;23.20;51.20;;;;;;5280962;27;20513;-81
2024/04/13 07:08:27;;;;;;;3.70;3.40;;;23.20;51.20;;;;;;5281641;27;20531;-80
2024/04/13 07:10:57;;;;;;;4.13;3.13;;;23.20;51.00;;;;;;5282266;27;20475;-83
2024/04/13 07:13:25;;;;;;;3.23;3.03;;;23.30;51.10;;;;;;5279188;27;20827;-81
2024/04/13 07:15:55;;;;;;;3.37;3.07;;;23.30;50.90;;;;;;5279904;27;20471;-82
2024/04/13 07:18:25;;;;;;;3.07;2.87;;;23.40;51.30;;;;;;5280101;27;20551;-81
2024/04/13 07:20:55;;;;;;;4.50;3.23;;;23.40;51.00;;;;;;5279686;27;20482;-81
2024/04/13 07:23:25;;;;;;;3.83;3.30;;;23.40;51.10;;;;;;5280136;27;20499;-82
2024/04/13 07:25:58;;;;;;;3.83;3.40;;;23.50;51.10;;;;;;5279039;27;20466;-81
2024/04/13 07:28:27;;;;;;;3.57;3.27;;;23.50;50.90;;;;;;5279476;27;20586;-80
2024/04/13 07:30:55;;;;;;;2.30;2.20;;;23.60;51.00;;;;;;5279668;27;20490;-82
2024/04/13 07:33:28;;;;;;;3.47;3.10;;;23.60;51.00;;;;;;5275535;27;20470;-81
2024/04/13 07:35:56;;;;;;;4.17;3.07;;;23.70;50.90;;;;;;5270113;27;20512;-81
2024/04/13 07:38:26;;;;;;;3.47;3.17;;;23.70;51.00;;;;;;5273866;27;20545;-80
2024/04/13 07:40:53;;;;;;;3.20;2.90;;;23.70;51.10;;;;;;5267625;27;20525;-81
2024/04/13 07:43:23;;;;;;;2.90;2.70;;;23.70;51.00;;;;;;5264848;27;20462;-80
2024/04/13 07:45:51;;;;;;;2.80;2.60;;;23.70;51.10;;;;;;5278968;27;20507;-80
2024/04/13 07:48:21;;;;;;;3.43;3.13;;;23.70;51.40;;;;;;5276545;27;20490;-81
2024/04/13 07:50:51;;;;;;;3.40;3.13;;;23.80;51.20;;;;;;5279041;27;20525;-81
2024/04/13 07:53:21;;;;;;;5.30;3.13;;;23.80;51.20;;;;;;5279520;27;20474;-83
2024/04/13 07:55:50;;;;;;;3.37;3.07;;;23.90;51.50;;;;;;5270464;27;20476;-81
2024/04/13 07:58:20;;;;;;;2.60;2.40;;;23.90;51.50;;;;;;5274772;27;20594;-80
2024/04/13 08:00:47;;;;;;;3.33;2.90;;;24.10;51.70;;;;;;5265128;27;21022;-82
2024/04/13 08:03:18;;;;;;;2.83;2.63;;;24.20;51.70;;;;;;5277871;27;20529;-78
2024/04/13 08:05:46;;;;;;;3.23;3.00;;;24.40;51.60;;;;;;5278168;27;20858;-81
2024/04/13 08:08:19;;;;;;;2.60;2.40;;;24.50;51.40;;;;;;5277872;27;20451;-80
2024/04/13 08:10:46;;;;;;;3.60;2.80;;;24.70;51.50;;;;;;5264597;27;20542;-79
2024/04/13 08:13:17;;;;;;;2.67;2.47;;;24.80;51.50;;;;;;5272504;27;20620;-82
2024/04/13 08:15:44;;;;;;;3.13;2.90;;;24.90;51.40;;;;;;5275421;27;20476;-82
2024/04/13 08:18:15;;;;;;;4.00;3.07;;;25.00;51.30;;;;;;5277756;27;20486;-80
2024/04/13 08:20:43;;;;;;;2.40;2.30;;;25.10;51.30;;;;;;5279200;27;20513;-82
2024/04/13 08:23:14;;;;;;;2.40;2.20;;;25.10;51.20;;;;;;5279123;27;20542;-80
2024/04/13 08:25:44;;;;;;;2.47;2.30;;;25.20;51.50;;;;;;5278111;27;20454;-80
2024/04/13 08:28:14;;;;;;;2.77;2.57;;;25.30;51.40;;;;;;5283003;27;21063;-81
2024/04/13 08:30:42;;;;;;;2.73;2.53;;;25.40;51.50;;;;;;5281049;27;20474;-80
2024/04/13 08:33:13;;;;;;;2.80;2.60;;;25.50;51.40;;;;;;5271829;27;20495;-81
2024/04/13 08:35:41;;;;;;;2.27;2.10;;;25.70;51.40;;;;;;5282282;27;20490;-81
2024/04/13 08:38:11;;;;;;;3.53;2.80;;;25.80;51.20;;;;;;5283197;27;20533;-82
2024/04/13 08:40:45;;;;;;;4.30;2.40;;;25.90;51.20;;;;;;5282003;27;20515;-81
2024/04/13 08:43:15;;;;;;;2.70;2.60;;;26.10;51.20;;;;;;5281974;27;20562;-81
2024/04/13 08:45:42;;;;;;;2.67;2.47;;;26.30;51.00;;;;;;5280204;27;20531;-79
2024/04/13 08:48:12;;;;;;;2.77;2.30;;;26.40;50.90;;;;;;5281128;27;20542;-79
2024/04/13 08:50:40;;;;;;;2.33;2.13;;;26.50;51.00;;;;;;5281384;27;20454;-80
2024/04/13 08:53:10;;;;;;;2.17;2.07;;;26.60;50.80;;;;;;5282273;27;20509;-80
2024/04/13 08:55:37;;;;;;;2.60;2.40;;;26.60;50.80;;;;;;5281265;27;20462;-79
2024/04/13 08:58:10;;;;;;;1.90;1.80;;;26.70;50.90;;;;;;5279569;27;20446;-80
2024/04/13 09:00:37;;;;;;;2.40;2.20;;;26.90;50.60;;;;;;5282440;27;20447;-80
2024/04/13 09:03:08;;;;;;;2.03;1.93;;;27.00;50.80;;;;;;5282200;27;20446;-82
2024/04/13 09:05:35;;;;;;;2.20;2.07;;;27.10;50.80;;;;;;5280939;27;20527;-78
2024/04/13 09:08:06;;;;;;;2.40;2.30;;;27.30;50.70;;;;;;5282695;27;20475;-79
2024/04/13 09:10:33;;;;;;;2.90;2.40;;;27.60;50.80;;;;;;5281911;27;20600;-81
2024/04/13 09:13:08;;;;;;;3.73;2.03;;;27.80;50.70;;;;;;5280375;27;20499;-80
2024/04/13 09:15:38;;;;;;;2.10;1.90;;;28.00;50.60;;;;;;5281766;27;20454;-81
2024/04/13 09:18:09;;;;;;;3.23;2.10;;;28.30;50.30;;;;;;5281321;27;20455;-81
2024/04/13 09:20:36;;;;;;;1.77;1.67;;;28.50;50.80;;;;;;5280450;27;20530;-80
2024/04/13 09:23:06;;;;;;;2.00;1.90;;;28.70;49.90;;;;;;5234232;27;20448;-81
2024/04/13 09:25:34;;;;;;;2.07;1.73;;;28.90;49.50;;;;;;5277015;27;20511;-80
2024/04/13 09:28:04;;;;;;;2.53;1.77;;;29.00;49.40;;;;;;5269846;27;20454;-81
2024/04/13 09:30:32;;;;;;;2.60;1.60;;;29.10;49.20;;;;;;5281303;27;20463;-80
2024/04/13 09:33:06;;;;;;;2.60;1.90;;;29.20;49.10;;;;;;5306026;27;20466;-80
2024/04/13 09:35:34;;;;;;;1.57;1.47;;;29.20;48.80;;;;;;5293151;27;20452;-79
2024/04/13 09:38:03;;;;;;;2.67;1.67;;;29.30;48.80;;;;;;5277762;27;20458;-78
2024/04/13 09:40:31;;;;;;;2.67;2.00;;;29.30;48.80;;;;;;5279504;27;20490;-81
2024/04/13 09:43:01;;;;;;;1.70;1.60;;;29.40;48.70;;;;;;5269057;27;20455;-80
2024/04/13 09:45:28;;;;;;;2.27;2.00;;;29.50;48.70;;;;;;5284889;27;20553;-80
2024/04/13 09:48:00;;;;;;;2.70;1.80;;;29.60;48.50;;;;;;5279598;27;20483;-80
2024/04/13 09:50:30;;;;;;;1.70;1.60;;;29.70;48.40;;;;;;5276162;27;20523;-81
2024/04/13 09:53:01;;;;;;;4.20;1.90;;;29.90;48.20;;;;;;5280463;27;20517;-80
2024/04/13 09:55:28;;;;;;;1.80;1.70;;;30.00;48.10;;;;;;5279162;27;20619;-80
2024/04/13 09:57:58;;;;;;;2.13;1.93;;;30.10;47.90;;;;;;5279093;27;20941;-79
2024/04/13 10:00:26;;;;;;;2.60;1.90;;;30.20;48.00;;;;;;5269302;27;20478;-80
2024/04/13 10:02:56;;;;;;;2.63;1.90;;;30.30;47.70;;;;;;5279238;27;20527;-81
2024/04/13 10:05:23;;;;;;;1.83;1.67;;;30.50;47.70;;;;;;5275527;27;20610;-81
2024/04/13 10:07:56;;;;;;;1.90;1.80;;;30.50;47.30;;;;;;5274762;27;20602;-84
2024/04/13 10:10:23;;;;;;;2.60;1.83;;;30.70;47.30;;;;;;5276309;27;20581;-82
2024/04/13 10:12:54;;;;;;;2.17;1.50;;;30.90;47.00;;;;;;5280230;27;20534;-83
2024/04/13 10:15:24;;;;;;;1.80;1.70;;;31.00;46.70;;;;;;5278228;27;20527;-82
2024/04/13 10:17:54;;;;;;;1.60;1.50;;;31.20;46.50;;;;;;5276609;27;20838;-82
2024/04/13 10:20:21;;;;;;;1.43;1.37;;;31.30;46.40;;;;;;5278878;27;20574;-82
2024/04/13 10:22:59;;;;;;;1.93;1.50;;;31.40;46.40;;;;;;5278149;27;20462;-81
2024/04/13 10:25:26;;;;;;;1.80;1.70;;;31.60;46.30;;;;;;5278459;27;20582;-81
2024/04/13 10:28:06;;;;;;;1.70;1.40;;;31.70;45.90;;;;;;5278015;27;20534;-84
2024/04/13 10:30:47;;;;;;;1.60;1.50;;;31.70;46.50;;;;;;5278496;27;20474;-81
2024/04/13 10:33:22;;;;;;;3.63;1.70;;;31.80;45.90;;;;;;5276819;27;20466;-81
2024/04/13 10:35:54;;;;;;;3.50;1.80;;;31.90;46.00;;;;;;5280189;27;20529;-81
2024/04/13 10:38:27;;;;;;;1.73;1.60;;;32.20;46.00;;;;;;5279524;27;20514;-80
2024/04/13 10:40:54;;;;;;;1.63;1.37;;;32.40;45.60;;;;;;5272868;27;20483;-81
2024/04/13 10:43:25;;;;;;;1.30;1.20;;;32.60;45.30;;;;;;5292995;27;20467;-83
2024/04/13 10:45:53;;;;;;;3.37;1.70;;;32.90;45.20;;;;;;5276782;27;20564;-80
2024/04/13 10:48:23;;;;;;;1.43;1.33;;;33.20;44.90;;;;;;5289117;27;20474;-80
2024/04/13 10:50:51;;;;;;;4.93;2.90;;;33.50;44.60;;;;;;5284339;27;20561;-78
2024/04/13 10:53:23;;;;;;;3.80;2.47;;;32.30;37.90;;;;;;5277107;27;20478;-79
2024/04/13 10:55:55;;;;;;;4.30;2.60;;;29.90;40.20;;;;;;5276800;27;20542;-78
2024/04/13 10:58:30;;;;;;;4.33;2.80;;;27.50;43.00;;;;;;5277093;27;20530;-78
2024/04/13 11:00:58;;;;;;;2.67;2.47;;;26.80;44.50;;;;;;5268559;27;20474;-81
2024/04/13 11:03:29;;;;;;;5.43;2.80;;;26.20;45.70;;;;;;5278173;27;20467;-79
2024/04/13 11:05:57;;;;;;;5.63;2.67;;;25.70;45.70;;;;;;5263767;27;20486;-79
2024/04/13 11:08:27;;;;;;;3.50;2.50;;;25.10;47.20;;;;;;5278538;27;20462;-79
2024/04/13 11:10:58;;;;;;;2.83;2.40;;;25.10;48.30;;;;;;5282321;27;20466;-79
2024/04/13 11:13:29;;;;;;;3.53;2.30;;;25.10;47.80;;;;;;5279983;27;20513;-80
2024/04/13 11:15:56;;;;;;;4.30;2.13;;;25.30;47.70;;;;;;5283314;27;20481;-80
2024/04/13 11:18:26;;;;;;;4.47;2.27;;;25.40;47.50;;;;;;5281222;27;20505;-81
2024/04/13 11:20:58;;;;;;;3.13;2.57;;;25.80;47.30;;;;;;5279451;27;20524;-79
2024/04/13 11:23:28;;;;;;;2.67;2.40;;;25.70;46.40;;;;;;5283991;27;20478;-81
2024/04/13 11:25:59;;;;;;;6.50;2.70;;;25.80;47.00;;;;;;5255396;27;20515;-80
2024/04/13 11:28:28;;;;;;;7.10;2.50;;;25.90;47.00;;;;;;5281328;27;20447;-79
2024/04/13 11:30:56;;;;;;;5.30;2.57;;;26.00;45.20;;;;;;5282531;27;20450;-80
2024/04/13 11:33:27;;;;;;;2.90;2.00;;;26.10;46.00;;;;;;5281875;27;20542;-79
2024/04/13 11:35:56;;;;;;;4.27;2.77;;;25.90;44.90;;;;;;5281246;27;20507;-79
2024/04/13 11:38:26;;;;;;;7.00;2.57;;;25.90;44.60;;;;;;5283123;27;20546;-79
2024/04/13 11:40:54;;;;;;;3.20;2.20;;;26.50;45.10;;;;;;5279773;27;20478;-75
2024/04/13 11:43:26;;;;;;;2.70;2.20;;;26.80;43.70;;;;;;5281806;27;20466;-79
2024/04/13 11:45:54;;;;;;;2.20;2.00;;;27.50;43.30;;;;;;5283340;27;20498;-79
2024/04/13 11:48:24;;;;;;;6.53;2.53;;;27.60;43.10;;;;;;5284639;27;20522;-81
2024/04/13 11:50:51;;;;;;;2.90;2.27;;;27.70;43.10;;;;;;5282867;27;20438;-77
2024/04/13 11:53:21;;;;;;;2.73;2.40;;;27.80;42.80;;;;;;5279431;27;20454;-79
2024/04/13 11:55:49;;;;;;;4.10;2.23;;;28.10;42.90;;;;;;5284384;27;20568;-79
2024/04/13 11:58:22;;;;;;;8.03;2.93;;;28.60;41.60;;;;;;5282907;27;20537;-79
2024/04/13 12:00:52;;;;;;;4.43;2.70;;;28.60;42.20;;;;;;5266655;27;20506;-81
2024/04/13 12:03:23;;;;;;;4.97;2.63;;;28.70;42.10;;;;;;5276769;27;20510;-81
2024/04/13 12:05:50;;;;;;;2.67;2.57;;;29.20;41.30;;;;;;5298618;27;20478;-82
2024/04/13 12:08:19;;;;;;;4.40;2.33;;;29.70;41.80;;;;;;5287796;27;20470;-79
2024/04/13 12:10:47;;;;;;;2.40;2.07;;;30.20;40.70;;;;;;5287901;27;20447;-80
2024/04/13 12:13:17;;;;;;;3.03;2.30;;;30.20;41.20;;;;;;5287161;27;20522;-80
2024/04/13 12:15:44;;;;;;;3.07;1.93;;;30.20;40.70;;;;;;5285169;27;20587;-80
2024/04/13 12:18:17;;;;;;;3.70;2.37;;;30.80;40.20;;;;;;5285689;27;21151;-79
2024/04/13 12:20:46;;;;;;;2.23;2.10;;;30.10;40.40;;;;;;5290682;27;20571;-79
2024/04/13 12:23:16;;;;;;;3.90;2.23;;;30.10;42.60;;;;;;5280557;27;20474;-78
2024/04/13 12:25:43;;;;;;;14.70;12.23;;;30.30;41.20;;;;;;5284596;27;20462;-79
2024/04/13 12:28:13;;;;;;;14.93;5.20;;;30.90;41.70;;;;;;5283258;27;20462;-79
2024/04/13 12:30:42;;;;;;;8.80;4.50;;;31.40;43.10;;;;;;5291396;27;20545;-79
2024/04/13 12:33:12;;;;;;;6.10;4.20;;;32.50;41.80;;;;;;5311045;27;20517;-79
2024/04/13 12:35:42;;;;;;;68.50;4.00;;;33.20;41.20;;;;;;5268237;27;20488;-78
2024/04/13 12:38:12;;;;;;;4.43;3.47;;;33.20;40.70;;;;;;5259261;27;20491;-77
2024/04/13 12:40:39;;;;;;;6.93;3.20;;;32.60;41.00;;;;;;5259608;27;20482;-77
2024/04/13 12:43:09;;;;;;;6.43;3.43;;;32.40;41.30;;;;;;5266157;27;20519;-76
2024/04/13 12:45:37;;;;;;;3.13;2.53;;;30.20;41.30;;;;;;5285133;27;20470;-76
2024/04/13 12:48:08;;;;;;;3.30;3.00;;;29.50;42.90;;;;;;5265784;27;20865;-77
2024/04/13 12:50:35;;;;;;;5.07;2.97;;;28.70;44.40;;;;;;5279546;27;20551;-75
2024/04/13 12:53:08;;;;;;;3.57;3.23;;;28.80;45.30;;;;;;5278895;27;20466;-76
2024/04/13 12:55:35;;;;;;;2.87;2.67;;;28.30;45.50;;;;;;5279244;27;20448;-76
2024/04/13 12:58:06;;;;;;;4.47;2.77;;;28.30;46.90;;;;;;5267170;27;20568;-75